Terminal Aerodrome Forecast
Issued by NWS Memphis, TN

Home | Current Version | Previous Version | Text Only | Print | Product List | Glossary On
Versions: 1 2 3 4 5 6 7 8 9 10 11 12 13 14 15 16 17 18 19 20 21
000
FTUS44 KMEG 012340 CCA
TAFMKL
TAF COR
KMKL 012340Z 0200/0224 35005KT 1SM -RA BR OVC003
     FM021000 01011KT 3SM -RA BR VCSH BKN003 OVC010
      TEMPO 0211/0213 3SM -FZRA BR
     FM021300 03012G18KT P6SM VCSH BKN008 OVC015=

USA.gov is the U.S. government's official web portal to all federal, state and local government web resources and services.